createdAt,value
2019-06-07T00:00:29.624Z,0.00
2019-06-07T00:01:11.319Z,0.00
2019-06-07T00:02:10.662Z,0.00
2019-06-07T00:03:15.797Z,0.00
2019-06-07T00:04:12.045Z,0.00
2019-06-07T00:05:10.117Z,0.00
2019-06-07T00:06:13.045Z,0.00
2019-06-07T00:07:12.598Z,0.00
2019-06-07T00:08:17.198Z,0.00
2019-06-07T00:09:12.640Z,0.00
2019-06-07T00:10:15.421Z,0.00
2019-06-07T00:11:15.078Z,0.00
2019-06-07T00:12:12.244Z,0.00
2019-06-07T00:13:09.865Z,0.00
2019-06-07T00:14:13.054Z,0.00
2019-06-07T00:15:14.433Z,0.00
2019-06-07T00:16:11.937Z,0.00
2019-06-07T00:17:12.511Z,0.00
2019-06-07T00:18:11.839Z,0.00
2019-06-07T00:19:09.698Z,0.00
2019-06-07T00:20:14.766Z,0.00
2019-06-07T00:21:11.790Z,0.00
2019-06-07T00:22:30.032Z,0.00
2019-06-07T00:23:12.274Z,0.00
2019-06-07T00:24:13.064Z,0.00
2019-06-07T00:25:13.384Z,0.00
2019-06-07T00:26:10.848Z,0.00
2019-06-07T00:27:11.015Z,0.00
2019-06-07T00:28:10.701Z,0.00
2019-06-07T00:29:11.763Z,0.00
2019-06-07T00:30:32.746Z,0.00
2019-06-07T00:31:11.521Z,0.00
2019-06-07T00:32:09.428Z,0.00
2019-06-07T00:33:11.037Z,0.00
2019-06-07T00:34:11.873Z,0.00
2019-06-07T00:35:09.516Z,0.00
2019-06-07T00:36:10.083Z,0.00
2019-06-07T00:37:11.195Z,0.00
2019-06-07T00:38:09.457Z,0.00
2019-06-07T00:39:10.656Z,0.00
2019-06-07T00:40:16.966Z,0.00
2019-06-07T00:41:10.206Z,0.00
2019-06-07T00:42:10.836Z,0.00
2019-06-07T00:43:13.353Z,0.00
2019-06-07T00:44:10.313Z,0.00
2019-06-07T00:45:11.025Z,0.00
2019-06-07T00:46:12.852Z,0.00
2019-06-07T00:47:10.590Z,0.00
2019-06-07T00:48:16.179Z,0.00
2019-06-07T00:49:13.161Z,0.00
2019-06-07T00:50:11.126Z,0.00
2019-06-07T00:51:09.111Z,0.00
2019-06-07T00:52:09.182Z,0.00
2019-06-07T00:53:17.177Z,0.00
2019-06-07T00:54:11.877Z,0.00
2019-06-07T00:55:09.156Z,0.00
2019-06-07T00:56:09.139Z,0.00
2019-06-07T00:57:09.122Z,0.00
2019-06-07T00:58:09.108Z,0.00
2019-06-07T00:59:11.514Z,0.00
2019-06-07T01:00:09.103Z,0.00
2019-06-07T01:01:09.085Z,0.00
2019-06-07T01:02:09.090Z,0.00
2019-06-07T01:03:09.084Z,0.00
2019-06-07T01:04:09.039Z,0.00
2019-06-07T01:05:09.098Z,0.00
2019-06-07T01:06:09.021Z,0.00
2019-06-07T01:07:09.013Z,0.00
2019-06-07T01:08:09.021Z,0.00
2019-06-07T01:09:08.990Z,0.00
2019-06-07T01:10:08.982Z,0.00
2019-06-07T01:11:09.287Z,0.00
2019-06-07T01:12:08.948Z,0.00
2019-06-07T01:13:08.972Z,0.00
2019-06-07T01:14:08.970Z,0.00
2019-06-07T01:15:08.948Z,0.00
2019-06-07T01:16:08.909Z,0.00
2019-06-07T01:17:23.361Z,0.00
2019-06-07T01:18:35.776Z,0.00
2019-06-07T01:19:09.783Z,0.00
2019-06-07T01:20:08.861Z,0.00
2019-06-07T01:21:08.912Z,0.00
2019-06-07T01:22:08.896Z,0.00
2019-06-07T01:23:52.000Z,0.00
2019-06-07T01:24:12.487Z,0.00
2019-06-07T01:25:08.882Z,0.00
2019-06-07T01:26:08.883Z,0.00
2019-06-07T01:27:08.775Z,0.00
2019-06-07T01:28:08.820Z,0.00
2019-06-07T01:29:08.789Z,0.00
2019-06-07T01:30:08.755Z,0.00
2019-06-07T01:31:08.756Z,0.00
2019-06-07T01:32:08.732Z,0.00
2019-06-07T01:33:08.725Z,0.00
2019-06-07T01:34:08.776Z,0.00
2019-06-07T01:35:08.701Z,0.00
2019-06-07T01:36:08.734Z,0.00
2019-06-07T01:37:08.669Z,0.00
2019-06-07T01:38:08.666Z,0.00
2019-06-07T01:39:08.650Z,0.00
2019-06-07T01:40:08.715Z,0.00
2019-06-07T01:41:08.636Z,0.00
2019-06-07T01:42:08.611Z,0.00
2019-06-07T01:43:08.623Z,0.00
2019-06-07T01:44:08.592Z,0.00
2019-06-07T01:45:08.590Z,0.00
2019-06-07T01:46:08.615Z,0.00
2019-06-07T01:47:08.565Z,0.00
2019-06-07T01:48:08.555Z,0.00
2019-06-07T01:49:08.539Z,0.00
2019-06-07T01:50:08.533Z,0.00
2019-06-07T01:51:08.511Z,0.00
2019-06-07T01:52:08.554Z,0.00
2019-06-07T01:53:08.498Z,0.00
2019-06-07T01:55:09.425Z,0.00
2019-06-07T01:56:08.458Z,0.00
2019-06-07T01:57:08.471Z,0.00
2019-06-07T01:58:09.390Z,0.00
2019-06-07T01:59:08.439Z,0.00
2019-06-07T02:00:08.417Z,0.00
2019-06-07T02:01:08.401Z,0.00
2019-06-07T02:02:08.406Z,0.00
2019-06-07T02:03:08.387Z,0.00
2019-06-07T02:04:08.397Z,0.00
2019-06-07T02:05:08.397Z,0.00
2019-06-07T02:06:08.357Z,0.00
2019-06-07T02:07:08.332Z,0.00
2019-06-07T02:08:08.337Z,0.00
2019-06-07T02:09:08.327Z,0.00
2019-06-07T02:10:08.308Z,0.00
2019-06-07T02:11:08.348Z,0.00
2019-06-07T02:12:25.005Z,0.00
2019-06-07T02:13:09.181Z,0.00
2019-06-07T02:14:08.264Z,0.00
2019-06-07T02:15:08.246Z,0.00
2019-06-07T02:16:08.233Z,0.00
2019-06-07T02:17:11.120Z,0.00
2019-06-07T02:18:08.230Z,0.00
2019-06-07T02:19:08.197Z,0.00
2019-06-07T02:20:08.243Z,0.00
2019-06-07T02:21:08.181Z,0.00
2019-06-07T02:22:08.172Z,0.00
2019-06-07T02:23:08.192Z,0.00
2019-06-07T02:24:08.156Z,0.00
2019-06-07T02:26:09.022Z,0.00
2019-06-07T02:27:08.116Z,0.00
2019-06-07T02:28:27.432Z,0.00
2019-06-07T02:29:09.048Z,0.00
2019-06-07T02:30:36.888Z,0.00
2019-06-07T02:31:08.997Z,0.00
2019-06-07T02:32:08.057Z,0.00
2019-06-07T02:33:08.046Z,0.00
2019-06-07T02:34:08.038Z,0.00
2019-06-07T02:35:08.059Z,0.00
2019-06-07T02:36:08.013Z,0.00
2019-06-07T02:37:08.013Z,0.00
2019-06-07T02:38:07.992Z,0.00
2019-06-07T02:39:07.992Z,0.00
2019-06-07T02:40:07.976Z,0.00
2019-06-07T02:41:08.006Z,0.00
2019-06-07T02:42:07.947Z,0.00
2019-06-07T02:43:08.086Z,0.00
2019-06-07T02:44:07.928Z,0.00
2019-06-07T02:45:07.907Z,0.00
2019-06-07T02:46:25.322Z,0.00
2019-06-07T02:47:08.838Z,0.00
2019-06-07T02:48:07.882Z,0.00
2019-06-07T02:49:07.862Z,0.00
2019-06-07T02:50:07.858Z,0.00
2019-06-07T02:51:07.752Z,0.00
2019-06-07T02:52:07.830Z,0.00
2019-06-07T02:53:07.918Z,0.00
2019-06-07T02:54:07.813Z,0.00
2019-06-07T02:55:07.790Z,0.00
2019-06-07T02:57:08.684Z,0.00
2019-06-07T02:58:07.811Z,0.00
2019-06-07T02:59:07.796Z,0.00
2019-06-07T03:00:40.644Z,0.00
2019-06-07T03:01:09.927Z,0.00
2019-06-07T03:02:07.720Z,0.00
2019-06-07T03:03:07.703Z,0.00
2019-06-07T03:04:07.689Z,0.00
2019-06-07T03:05:07.741Z,4.00
2019-06-07T03:06:07.673Z,4.00
2019-06-07T03:07:07.679Z,4.00
2019-06-07T03:08:07.648Z,4.00
2019-06-07T03:09:07.638Z,0.00
2019-06-07T03:10:07.632Z,4.00
2019-06-07T03:11:07.667Z,4.00
2019-06-07T03:12:07.604Z,4.00
2019-06-07T03:13:07.595Z,4.00
2019-06-07T03:14:07.589Z,4.00
2019-06-07T03:15:07.577Z,4.00
2019-06-07T03:16:07.560Z,4.00
2019-06-07T03:17:07.595Z,4.00
2019-06-07T03:18:07.593Z,8.00
2019-06-07T03:19:07.539Z,4.00
2019-06-07T03:20:07.510Z,8.00
2019-06-07T03:21:07.510Z,8.00
2019-06-07T03:22:07.494Z,4.00
2019-06-07T03:23:10.082Z,8.00
2019-06-07T03:24:07.471Z,8.00
2019-06-07T03:25:07.466Z,8.00
2019-06-07T03:26:07.469Z,8.00
2019-06-07T03:28:08.379Z,8.00
2019-06-07T03:29:07.478Z,12.00
2019-06-07T03:30:35.961Z,12.00
2019-06-07T03:31:08.304Z,12.00
2019-06-07T03:32:07.396Z,12.00
2019-06-07T03:33:07.391Z,12.00
2019-06-07T03:34:07.359Z,12.00
2019-06-07T03:35:07.400Z,16.00
2019-06-07T03:36:22.864Z,16.00
2019-06-07T03:37:08.237Z,16.00
2019-06-07T03:38:07.314Z,16.00
2019-06-07T03:39:07.299Z,20.00
2019-06-07T03:40:07.298Z,20.00
2019-06-07T03:41:07.231Z,20.00
2019-06-07T03:42:08.636Z,24.00
2019-06-07T03:43:07.289Z,24.00
2019-06-07T03:44:07.255Z,24.00
2019-06-07T03:45:07.247Z,28.00
2019-06-07T03:46:07.278Z,28.00
2019-06-07T03:47:07.215Z,28.00
2019-06-07T03:48:07.226Z,32.00
2019-06-07T03:49:07.193Z,36.00
2019-06-07T03:50:07.179Z,36.00
2019-06-07T03:52:08.209Z,40.00
2019-06-07T03:53:09.781Z,40.00
2019-06-07T03:54:07.135Z,40.00
2019-06-07T03:55:07.137Z,44.00
2019-06-07T03:56:07.194Z,44.00
2019-06-07T03:57:07.111Z,48.00
2019-06-07T03:59:08.007Z,52.00
2019-06-07T04:00:07.085Z,56.00
2019-06-07T04:01:07.072Z,56.00
2019-06-07T04:02:07.061Z,60.00
2019-06-07T04:03:07.028Z,60.00
2019-06-07T04:04:07.071Z,64.00
2019-06-07T04:05:07.025Z,68.00
2019-06-07T04:06:07.005Z,72.00
2019-06-07T04:07:06.992Z,76.00
2019-06-07T04:08:06.982Z,76.00
2019-06-07T04:09:07.012Z,76.00
2019-06-07T04:10:07.015Z,84.00
2019-06-07T04:11:06.966Z,84.00
2019-06-07T04:12:06.937Z,88.00
2019-06-07T04:13:06.919Z,88.00
2019-06-07T04:14:06.987Z,92.00
2019-06-07T04:15:06.905Z,92.00
2019-06-07T04:16:06.932Z,92.00
2019-06-07T04:17:06.888Z,96.00
2019-06-07T04:18:06.876Z,100.00
2019-06-07T04:19:06.857Z,100.00
2019-06-07T04:20:06.862Z,104.00
2019-06-07T04:21:06.832Z,104.00
2019-06-07T04:22:06.902Z,108.00
2019-06-07T04:23:27.306Z,112.00
2019-06-07T04:24:07.720Z,112.00
2019-06-07T04:25:06.780Z,116.00
2019-06-07T04:26:06.793Z,116.00
2019-06-07T04:27:06.767Z,120.00
2019-06-07T04:28:06.822Z,124.00
2019-06-07T04:29:32.278Z,124.00
2019-06-07T04:30:08.380Z,132.00
2019-06-07T04:31:06.725Z,128.00
2019-06-07T04:32:06.721Z,132.00
2019-06-07T04:33:06.699Z,136.00
2019-06-07T04:34:06.733Z,140.00
2019-06-07T04:35:06.672Z,144.00
2019-06-07T04:36:06.670Z,144.00
2019-06-07T04:37:06.653Z,148.00
2019-06-07T04:38:06.642Z,152.00
2019-06-07T04:39:06.636Z,148.00
2019-06-07T04:40:06.645Z,152.00
2019-06-07T04:41:06.612Z,156.00
2019-06-07T04:42:06.597Z,152.00
2019-06-07T04:43:06.616Z,156.00
2019-06-07T04:44:06.630Z,160.00
2019-06-07T04:45:06.559Z,160.00
2019-06-07T04:46:06.570Z,160.00
2019-06-07T04:47:06.575Z,156.00
2019-06-07T04:48:06.587Z,156.00
2019-06-07T04:49:09.265Z,156.00
2019-06-07T04:50:06.541Z,152.00
2019-06-07T04:51:06.553Z,152.00
2019-06-07T04:52:06.487Z,152.00
2019-06-07T04:53:06.555Z,156.00
2019-06-07T04:54:06.456Z,160.00
2019-06-07T04:55:06.454Z,164.00
2019-06-07T04:56:06.446Z,168.00
2019-06-07T04:57:06.461Z,172.00
2019-06-07T04:58:06.429Z,180.00
2019-06-07T04:59:06.455Z,180.00
2019-06-07T05:00:46.909Z,188.00
2019-06-07T05:01:24.351Z,192.00
2019-06-07T05:02:07.303Z,200.00
2019-06-07T05:03:06.275Z,204.00
2019-06-07T05:04:06.261Z,216.00
2019-06-07T05:05:06.396Z,224.00
2019-06-07T05:06:06.230Z,224.00
2019-06-07T05:07:06.229Z,224.00
2019-06-07T05:08:07.872Z,232.00
2019-06-07T05:09:07.301Z,236.00
2019-06-07T05:10:06.192Z,236.00
2019-06-07T05:11:06.238Z,232.00
2019-06-07T05:12:06.261Z,232.00
2019-06-07T05:13:06.255Z,228.00
2019-06-07T05:14:06.231Z,224.00
2019-06-07T05:15:06.234Z,216.00
2019-06-07T05:16:06.207Z,212.00
2019-06-07T05:17:06.249Z,216.00
2019-06-07T05:18:06.182Z,228.00
2019-06-07T05:19:08.785Z,240.00
2019-06-07T05:20:06.171Z,248.00
2019-06-07T05:21:06.177Z,200.00
2019-06-07T05:22:06.157Z,172.00
2019-06-07T05:23:06.109Z,176.00
2019-06-07T05:24:09.985Z,176.00
2019-06-07T05:25:06.125Z,176.00
2019-06-07T05:26:06.066Z,176.00
2019-06-07T05:27:06.299Z,172.00
2019-06-07T05:28:06.082Z,172.00
2019-06-07T05:29:06.114Z,172.00
2019-06-07T05:30:23.885Z,172.00
2019-06-07T05:31:07.994Z,180.00
2019-06-07T05:32:06.121Z,176.00
2019-06-07T05:33:06.055Z,176.00
2019-06-07T05:34:06.075Z,172.00
2019-06-07T05:35:06.062Z,168.00
2019-06-07T05:36:06.012Z,164.00
2019-06-07T05:37:11.703Z,160.00
2019-06-07T05:38:06.963Z,160.00
2019-06-07T05:39:05.952Z,160.00
2019-06-07T05:40:05.944Z,164.00
2019-06-07T05:41:05.938Z,168.00
2019-06-07T05:42:05.849Z,172.00
2019-06-07T05:43:05.876Z,172.00
2019-06-07T05:44:12.469Z,180.00
2019-06-07T05:45:06.954Z,180.00
2019-06-07T05:46:05.790Z,180.00
2019-06-07T05:47:05.785Z,188.00
2019-06-07T05:48:05.775Z,192.00
2019-06-07T05:49:05.826Z,188.00
2019-06-07T05:50:05.849Z,188.00
2019-06-07T05:51:05.838Z,188.00
2019-06-07T05:52:05.720Z,192.00
2019-06-07T05:53:05.735Z,192.00
2019-06-07T05:54:05.694Z,200.00
2019-06-07T05:55:05.757Z,208.00
2019-06-07T05:56:05.686Z,220.00
2019-06-07T05:57:05.679Z,228.00
2019-06-07T05:58:05.655Z,252.00
2019-06-07T05:59:05.651Z,448.00
2019-06-07T06:00:05.674Z,316.00
2019-06-07T06:01:41.589Z,224.00
2019-06-07T06:02:21.843Z,224.00
2019-06-07T06:03:06.590Z,232.00
2019-06-07T06:04:05.676Z,244.00
2019-06-07T06:05:05.695Z,260.00
2019-06-07T06:06:05.603Z,232.00
2019-06-07T06:07:05.684Z,240.00
2019-06-07T06:08:05.634Z,244.00
2019-06-07T06:09:13.778Z,232.00
2019-06-07T06:10:06.599Z,240.00
2019-06-07T06:11:05.618Z,224.00
2019-06-07T06:12:05.590Z,248.00
2019-06-07T06:13:05.613Z,512.00
2019-06-07T06:14:08.330Z,292.00
2019-06-07T06:15:05.473Z,244.00
2019-06-07T06:16:05.445Z,252.00
2019-06-07T06:17:05.445Z,228.00
2019-06-07T06:18:05.430Z,224.00
2019-06-07T06:19:05.459Z,224.00
2019-06-07T06:20:05.566Z,252.00
2019-06-07T06:21:18.913Z,560.00
2019-06-07T06:22:06.401Z,520.00
2019-06-07T06:23:05.363Z,540.00
2019-06-07T06:24:05.350Z,344.00
2019-06-07T06:25:34.537Z,352.00
2019-06-07T06:26:06.353Z,580.00
2019-06-07T06:27:28.432Z,564.00
2019-06-07T06:28:12.070Z,560.00
2019-06-07T06:29:06.297Z,556.00
2019-06-07T06:30:05.287Z,556.00
2019-06-07T06:31:05.333Z,564.00
2019-06-07T06:33:06.290Z,556.00
2019-06-07T06:34:05.294Z,564.00
2019-06-07T06:35:05.245Z,564.00
2019-06-07T06:36:05.301Z,564.00
2019-06-07T06:37:05.212Z,564.00
2019-06-07T06:38:05.210Z,552.00
2019-06-07T06:39:05.288Z,564.00
2019-06-07T06:40:05.223Z,560.00
2019-06-07T06:41:15.729Z,536.00
2019-06-07T06:42:06.163Z,560.00
2019-06-07T06:43:05.155Z,560.00
2019-06-07T06:44:05.229Z,564.00
2019-06-07T06:45:05.212Z,560.00
2019-06-07T06:46:05.243Z,560.00
2019-06-07T06:47:05.144Z,564.00
2019-06-07T06:48:05.106Z,560.00
2019-06-07T06:49:05.088Z,560.00
2019-06-07T06:50:05.069Z,560.00
2019-06-07T06:51:05.073Z,560.00
2019-06-07T06:52:05.079Z,564.00
2019-06-07T06:53:05.035Z,560.00
2019-06-07T06:54:05.073Z,556.00
2019-06-07T06:55:05.018Z,544.00
2019-06-07T06:56:05.829Z,544.00
2019-06-07T06:57:19.264Z,544.00
2019-06-07T06:58:06.349Z,544.00
2019-06-07T07:00:06.031Z,544.00
2019-06-07T07:01:06.828Z,540.00
2019-06-07T07:02:04.982Z,544.00
2019-06-07T07:03:47.337Z,540.00
2019-06-07T07:04:13.012Z,532.00
2019-06-07T07:05:05.905Z,544.00
2019-06-07T07:06:24.632Z,532.00
2019-06-07T07:07:05.969Z,528.00
2019-06-07T07:08:04.914Z,540.00
2019-06-07T07:09:04.861Z,540.00
2019-06-07T07:10:04.938Z,540.00
2019-06-07T07:11:04.929Z,540.00
2019-06-07T07:12:11.698Z,528.00
2019-06-07T07:13:05.979Z,540.00
2019-06-07T07:14:04.882Z,540.00
2019-06-07T07:15:06.269Z,544.00
2019-06-07T07:16:04.875Z,528.00
2019-06-07T07:17:04.867Z,528.00
2019-06-07T07:18:08.709Z,524.00
2019-06-07T07:19:04.843Z,592.00
2019-06-07T07:20:04.783Z,596.00
2019-06-07T07:21:04.722Z,592.00
2019-06-07T07:22:04.713Z,592.00
2019-06-07T07:23:04.803Z,588.00
2019-06-07T07:24:20.097Z,592.00
2019-06-07T07:25:05.674Z,600.00
2019-06-07T07:26:04.682Z,600.00
2019-06-07T07:27:04.669Z,600.00
2019-06-07T07:28:04.797Z,604.00
2019-06-07T07:29:04.646Z,600.00
2019-06-07T07:30:35.284Z,604.00
2019-06-07T07:31:05.629Z,604.00
2019-06-07T07:32:04.667Z,604.00
2019-06-07T07:33:06.276Z,608.00
2019-06-07T07:35:05.575Z,612.00
2019-06-07T07:36:23.152Z,612.00
2019-06-07T07:37:05.601Z,612.00
2019-06-07T07:38:04.630Z,608.00
2019-06-07T07:39:05.603Z,612.00
2019-06-07T07:40:54.969Z,612.00
2019-06-07T07:41:14.410Z,616.00
2019-06-07T07:42:20.192Z,616.00
2019-06-07T07:43:05.657Z,616.00
2019-06-07T07:44:07.038Z,616.00
2019-06-07T07:45:04.635Z,620.00
2019-06-07T07:46:27.934Z,616.00
2019-06-07T07:47:05.439Z,620.00
2019-06-07T07:48:15.274Z,616.00
2019-06-07T07:49:05.614Z,620.00
2019-06-07T07:50:04.509Z,620.00
2019-06-07T07:51:04.540Z,616.00
2019-06-07T07:52:04.503Z,616.00
2019-06-07T07:53:04.483Z,616.00
2019-06-07T07:54:10.764Z,612.00
2019-06-07T07:55:05.500Z,616.00
2019-06-07T07:56:04.635Z,616.00
2019-06-07T07:57:04.478Z,616.00
2019-06-07T07:58:04.417Z,616.00
2019-06-07T07:59:04.625Z,616.00
2019-06-07T08:00:47.818Z,616.00
2019-06-07T08:01:10.601Z,616.00
2019-06-07T08:02:05.416Z,616.00
2019-06-07T08:03:04.787Z,544.00
2019-06-07T08:04:04.372Z,548.00
2019-06-07T08:05:21.067Z,544.00
2019-06-07T08:06:05.412Z,628.00
2019-06-07T08:07:04.240Z,628.00
2019-06-07T08:08:07.442Z,600.00
2019-06-07T08:09:04.220Z,600.00
2019-06-07T08:10:04.601Z,600.00
2019-06-07T08:11:04.171Z,604.00
2019-06-07T08:12:04.176Z,604.00
2019-06-07T08:13:23.601Z,604.00
2019-06-07T08:14:05.199Z,608.00
2019-06-07T08:15:04.286Z,608.00
2019-06-07T08:16:10.871Z,608.00
2019-06-07T08:17:05.136Z,608.00
2019-06-07T08:18:04.820Z,608.00
2019-06-07T08:19:04.696Z,608.00
2019-06-07T08:20:04.106Z,612.00
2019-06-07T08:21:21.900Z,608.00
2019-06-07T08:22:05.054Z,608.00
2019-06-07T08:23:04.049Z,608.00
2019-06-07T08:24:05.348Z,612.00
2019-06-07T08:25:04.574Z,608.00
2019-06-07T08:26:04.011Z,612.00
2019-06-07T08:27:24.353Z,612.00
2019-06-07T08:28:04.995Z,612.00
2019-06-07T08:29:03.987Z,612.00
2019-06-07T08:30:35.417Z,612.00
2019-06-07T08:31:07.117Z,616.00
2019-06-07T08:32:03.978Z,616.00
2019-06-07T08:33:24.902Z,612.00
2019-06-07T08:34:04.929Z,612.00
2019-06-07T08:35:06.685Z,612.00
2019-06-07T08:36:16.952Z,612.00
2019-06-07T08:37:04.891Z,616.00
2019-06-07T08:38:46.608Z,616.00
2019-06-07T08:39:07.476Z,616.00
2019-06-07T08:40:03.882Z,616.00
2019-06-07T08:41:11.453Z,616.00
2019-06-07T08:42:15.460Z,616.00
2019-06-07T08:43:18.116Z,616.00
2019-06-07T08:44:22.689Z,616.00
2019-06-07T08:45:05.716Z,616.00
2019-06-07T08:46:07.443Z,616.00
2019-06-07T08:47:19.403Z,616.00
2019-06-07T08:48:18.214Z,616.00
2019-06-07T08:49:04.951Z,620.00
2019-06-07T08:50:07.903Z,620.00
2019-06-07T08:51:08.275Z,616.00
2019-06-07T08:52:11.452Z,616.00
2019-06-07T08:53:11.862Z,620.00
2019-06-07T08:54:21.765Z,620.00
2019-06-07T08:55:05.322Z,620.00
2019-06-07T08:56:09.016Z,620.00
2019-06-07T08:57:19.323Z,620.00
2019-06-07T08:58:08.536Z,620.00
2019-06-07T08:59:11.096Z,620.00
2019-06-07T09:00:16.180Z,616.00
2019-06-07T09:01:08.472Z,616.00
2019-06-07T09:02:14.678Z,616.00
2019-06-07T09:03:07.173Z,616.00
2019-06-07T09:04:10.501Z,620.00
2019-06-07T09:05:11.764Z,620.00
2019-06-07T09:06:16.139Z,620.00
2019-06-07T09:07:18.179Z,624.00
2019-06-07T09:08:28.640Z,624.00
2019-06-07T09:09:05.386Z,620.00
2019-06-07T09:10:09.555Z,624.00
2019-06-07T09:11:10.234Z,624.00
2019-06-07T09:12:08.119Z,624.00
2019-06-07T09:13:10.842Z,620.00
2019-06-07T09:14:08.855Z,540.00
2019-06-07T09:15:19.872Z,536.00
2019-06-07T09:16:08.199Z,540.00
2019-06-07T09:17:11.032Z,536.00
2019-06-07T09:19:10.672Z,636.00
2019-06-07T09:20:08.940Z,636.00
2019-06-07T09:21:09.383Z,636.00
2019-06-07T09:22:10.675Z,636.00
2019-06-07T09:23:15.731Z,636.00
2019-06-07T09:24:11.308Z,636.00
2019-06-07T09:25:17.226Z,632.00
2019-06-07T09:26:15.358Z,636.00
2019-06-07T09:27:07.670Z,640.00
2019-06-07T09:28:14.114Z,636.00
2019-06-07T09:29:08.718Z,636.00
2019-06-07T09:30:11.245Z,636.00
2019-06-07T09:31:09.903Z,636.00
2019-06-07T09:32:10.075Z,632.00
2019-06-07T09:33:06.919Z,632.00
2019-06-07T09:34:07.994Z,632.00
2019-06-07T09:35:08.113Z,636.00
2019-06-07T09:36:07.994Z,640.00
2019-06-07T09:37:54.703Z,636.00
2019-06-07T09:38:14.363Z,636.00
2019-06-07T09:39:09.572Z,636.00
2019-06-07T09:40:20.459Z,636.00
2019-06-07T09:41:06.155Z,636.00
2019-06-07T09:42:08.441Z,636.00
2019-06-07T09:43:54.272Z,636.00
2019-06-07T09:44:19.006Z,640.00
2019-06-07T09:45:08.731Z,640.00
2019-06-07T09:46:11.452Z,644.00
2019-06-07T09:47:22.276Z,640.00
2019-06-07T09:48:11.570Z,640.00
2019-06-07T09:49:22.921Z,644.00
2019-06-07T09:50:09.027Z,644.00
2019-06-07T09:51:09.697Z,644.00
2019-06-07T09:52:10.337Z,644.00
2019-06-07T09:53:13.975Z,648.00
2019-06-07T09:54:08.141Z,652.00
2019-06-07T09:55:12.406Z,652.00
2019-06-07T09:56:08.374Z,652.00
2019-06-07T09:57:07.793Z,656.00
2019-06-07T09:58:47.769Z,656.00
2019-06-07T09:59:07.465Z,656.00
2019-06-07T10:00:36.089Z,656.00
2019-06-07T10:01:09.933Z,660.00
2019-06-07T10:02:08.234Z,660.00
2019-06-07T10:03:15.787Z,660.00
2019-06-07T10:04:09.148Z,660.00
2019-06-07T10:05:07.463Z,660.00
2019-06-07T10:06:09.713Z,664.00
2019-06-07T10:07:13.287Z,664.00
2019-06-07T10:08:16.093Z,664.00
2019-06-07T10:10:25.778Z,668.00
2019-06-07T10:11:04.735Z,672.00
2019-06-07T10:12:02.853Z,672.00
2019-06-07T10:13:04.035Z,676.00
2019-06-07T10:14:02.857Z,672.00
2019-06-07T10:15:03.121Z,668.00
2019-06-07T10:16:02.859Z,672.00
2019-06-07T10:17:03.181Z,672.00
2019-06-07T10:18:02.900Z,676.00
2019-06-07T10:19:03.703Z,676.00
2019-06-07T10:20:04.023Z,676.00
2019-06-07T10:21:03.715Z,676.00
2019-06-07T10:22:03.384Z,668.00
2019-06-07T10:23:03.691Z,676.00
2019-06-07T10:24:03.469Z,676.00
2019-06-07T10:25:04.274Z,676.00
2019-06-07T10:26:04.018Z,680.00
2019-06-07T10:27:04.041Z,676.00
2019-06-07T10:28:03.837Z,588.00
2019-06-07T10:29:04.879Z,572.00
2019-06-07T10:30:03.975Z,572.00
2019-06-07T10:31:04.404Z,564.00
2019-06-07T10:32:02.710Z,600.00
2019-06-07T10:33:02.636Z,608.00
2019-06-07T10:34:02.636Z,556.00
2019-06-07T10:35:03.321Z,560.00
2019-06-07T10:36:02.604Z,628.00
2019-06-07T10:37:04.925Z,632.00
2019-06-07T10:38:02.624Z,628.00
2019-06-07T10:39:02.949Z,628.00
2019-06-07T10:40:02.921Z,632.00
2019-06-07T10:41:02.875Z,628.00
2019-06-07T10:42:04.072Z,632.00
2019-06-07T10:43:02.942Z,636.00
2019-06-07T10:44:03.333Z,636.00
2019-06-07T10:45:04.475Z,636.00
2019-06-07T10:46:03.649Z,640.00
2019-06-07T10:47:03.848Z,640.00
2019-06-07T10:48:03.599Z,644.00
2019-06-07T10:49:03.676Z,644.00
2019-06-07T10:50:03.762Z,644.00
2019-06-07T10:51:02.447Z,648.00
2019-06-07T10:52:04.967Z,648.00
2019-06-07T10:53:02.516Z,648.00
2019-06-07T10:54:11.230Z,656.00
2019-06-07T10:55:04.565Z,652.00
2019-06-07T10:56:02.944Z,656.00
2019-06-07T10:57:02.925Z,660.00
2019-06-07T10:58:02.750Z,656.00
2019-06-07T10:59:03.084Z,656.00
2019-06-07T11:00:03.505Z,660.00
2019-06-07T11:01:03.362Z,660.00
2019-06-07T11:02:03.424Z,660.00
2019-06-07T11:03:03.608Z,660.00
2019-06-07T11:04:03.379Z,660.00
2019-06-07T11:05:03.701Z,664.00
2019-06-07T11:06:03.641Z,664.00
2019-06-07T11:07:02.488Z,664.00
2019-06-07T11:08:02.253Z,664.00
2019-06-07T11:09:02.262Z,668.00
2019-06-07T11:10:07.499Z,664.00
2019-06-07T11:11:03.853Z,664.00
2019-06-07T11:12:02.345Z,620.00
2019-06-07T11:13:02.222Z,608.00
2019-06-07T11:14:02.292Z,612.00
2019-06-07T11:15:02.288Z,608.00
2019-06-07T11:16:02.261Z,608.00
2019-06-07T11:17:02.273Z,604.00
2019-06-07T11:18:02.288Z,612.00
2019-06-07T11:19:02.246Z,604.00
2019-06-07T11:20:02.302Z,604.00
2019-06-07T11:21:02.205Z,604.00
2019-06-07T11:22:02.184Z,608.00
2019-06-07T11:23:02.178Z,608.00
2019-06-07T11:24:02.173Z,616.00
2019-06-07T11:25:02.426Z,616.00
2019-06-07T11:26:02.060Z,616.00
2019-06-07T11:27:02.061Z,616.00
2019-06-07T11:28:02.051Z,616.00
2019-06-07T11:29:02.046Z,612.00
2019-06-07T11:30:02.349Z,612.00
2019-06-07T11:31:02.012Z,616.00
2019-06-07T11:32:02.010Z,612.00
2019-06-07T11:33:01.999Z,608.00
2019-06-07T11:34:01.967Z,608.00
2019-06-07T11:35:01.968Z,608.00
2019-06-07T11:36:02.007Z,568.00
2019-06-07T11:37:02.050Z,564.00
2019-06-07T11:38:01.932Z,568.00
2019-06-07T11:39:01.929Z,652.00
2019-06-07T11:40:01.946Z,648.00
2019-06-07T11:41:01.909Z,652.00
2019-06-07T11:42:01.938Z,648.00
2019-06-07T11:43:02.006Z,648.00
2019-06-07T11:44:01.877Z,648.00
2019-06-07T11:45:01.868Z,648.00
2019-06-07T11:46:01.852Z,648.00
2019-06-07T11:47:01.890Z,648.00
2019-06-07T11:48:01.872Z,648.00
2019-06-07T11:49:01.869Z,648.00
2019-06-07T11:50:01.819Z,648.00
2019-06-07T11:51:01.790Z,648.00
2019-06-07T11:52:01.796Z,648.00
2019-06-07T11:53:01.768Z,648.00
2019-06-07T11:54:01.768Z,648.00
2019-06-07T11:55:01.811Z,648.00
2019-06-07T11:56:01.753Z,648.00
2019-06-07T11:57:01.728Z,648.00
2019-06-07T11:58:01.730Z,648.00
2019-06-07T11:59:01.711Z,648.00
2019-06-07T12:00:01.687Z,644.00
2019-06-07T12:01:01.751Z,648.00
2019-06-07T12:02:01.687Z,648.00
2019-06-07T12:03:01.687Z,648.00
2019-06-07T12:04:01.648Z,648.00
2019-06-07T12:05:01.660Z,648.00
2019-06-07T12:06:01.634Z,648.00
2019-06-07T12:07:01.657Z,648.00
2019-06-07T12:08:01.630Z,648.00
2019-06-07T12:09:01.613Z,648.00
2019-06-07T12:10:01.574Z,644.00
2019-06-07T12:11:01.595Z,644.00
2019-06-07T12:12:01.575Z,644.00
2019-06-07T12:13:01.593Z,648.00
2019-06-07T12:14:01.607Z,648.00
2019-06-07T12:15:01.531Z,644.00
2019-06-07T12:16:01.537Z,644.00
2019-06-07T12:17:01.530Z,644.00
2019-06-07T12:18:01.513Z,644.00
2019-06-07T12:19:01.552Z,644.00
2019-06-07T12:20:02.249Z,640.00
2019-06-07T12:21:01.467Z,644.00
2019-06-07T12:22:01.540Z,640.00
2019-06-07T12:23:01.455Z,644.00
2019-06-07T12:24:01.458Z,640.00
2019-06-07T12:25:01.434Z,640.00
2019-06-07T12:26:01.466Z,640.00
2019-06-07T12:27:01.477Z,640.00
2019-06-07T12:28:01.401Z,636.00
2019-06-07T12:29:01.388Z,636.00
2019-06-07T12:30:09.193Z,636.00
2019-06-07T12:31:02.372Z,636.00
2019-06-07T12:32:01.350Z,632.00
2019-06-07T12:33:01.376Z,632.00
2019-06-07T12:34:01.335Z,632.00
2019-06-07T12:35:01.334Z,628.00
2019-06-07T12:36:01.312Z,624.00
2019-06-07T12:37:01.316Z,628.00
2019-06-07T12:38:01.325Z,624.00
2019-06-07T12:39:01.334Z,624.00
2019-06-07T12:40:01.259Z,624.00
2019-06-07T12:41:01.286Z,620.00
2019-06-07T12:42:01.249Z,620.00
2019-06-07T12:43:01.235Z,616.00
2019-06-07T12:44:01.251Z,612.00
2019-06-07T12:45:01.270Z,612.00
2019-06-07T12:46:01.207Z,608.00
2019-06-07T12:47:01.205Z,608.00
2019-06-07T12:48:01.188Z,604.00
2019-06-07T12:49:01.168Z,604.00
2019-06-07T12:50:01.179Z,604.00
2019-06-07T12:51:01.206Z,604.00
2019-06-07T12:52:01.147Z,600.00
2019-06-07T12:53:01.128Z,596.00